Startpagina
METAR-TAF:

METAR-TAF

Vliegvelden :

Béchar, Algerije

breedte: 31-37N, lengte: 002-14W, hoogte: 773 m

Actueel weer

Dit bericht is 31 minuten geleden gemaakt, om 16:00 UTC
Wind 10 kt uit het zuidzuidwesten
Temperatuur 15°C
Vochtigheid 23%
Druk 1019 hPa
Zicht 10 km of meer
Weinig wolken op 3300 ft

METAR: DAOR 231600Z 21010KT 9999 FEW033 15/M06 Q1019

Tijdstip: 17:31 (16:31 UTC)

Verwachting

Dit bericht is 2 uur en het 31 minuten geleden gemaakt, om 14:00 UTC
Verwachting geldig van 23 om 15 UTC tot 23 om 24 UTC
Wind 10 kt uit het zuiden
Zicht 10 km of meer
Weinig wolken op 3300 ft

TAF: DAOR 231400Z 2315/2324 18010KT 9999 FEW033

Waarnemingen en weersverwachtingen van meer dan 4000 vliegvelden (METAR en TAF).

De beschikbare stations zijn de gele en rode punten op de kaart.

Ga met uw muis naar het station om de naam te zien.

Klik dan om waarnemingen en weersverwachtingen te zien.

kaart wijzigen: klik op de groene knoppen met een zwart kruis om in te zoomen, op de groene knop met een streepje om uit te zoomen of op de groene pijlen voor aangrenzende kaarten.


METAR-TAF: